sensor_id;sensor_type;location;lat;lon;timestamp;P1;durP1;ratioP1;P2;durP2;ratioP2
10497;SDS011;5296;51.060;13.750;2023-05-07T00:04:35;13.10;;;11.40;;
10497;SDS011;5296;51.060;13.750;2023-05-07T00:09:39;12.60;;;10.93;;
10497;SDS011;5296;51.060;13.750;2023-05-07T00:14:41;12.13;;;10.82;;
10497;SDS011;5296;51.060;13.750;2023-05-07T00:19:43;13.05;;;10.90;;
10497;SDS011;5296;51.060;13.750;2023-05-07T00:24:44;13.63;;;11.55;;
10497;SDS011;5296;51.060;13.750;2023-05-07T00:29:46;15.88;;;13.40;;
10497;SDS011;5296;51.060;13.750;2023-05-07T00:34:48;13.90;;;12.50;;
10497;SDS011;5296;51.060;13.750;2023-05-07T00:39:50;14.07;;;12.45;;
10497;SDS011;5296;51.060;13.750;2023-05-07T00:44:52;14.60;;;13.13;;
10497;SDS011;5296;51.060;13.750;2023-05-07T00:49:53;15.18;;;13.57;;
10497;SDS011;5296;51.060;13.750;2023-05-07T00:54:55;15.93;;;13.88;;
10497;SDS011;5296;51.060;13.750;2023-05-07T00:59:57;16.38;;;13.93;;
10497;SDS011;5296;51.060;13.750;2023-05-07T01:04:59;13.75;;;12.35;;
10497;SDS011;5296;51.060;13.750;2023-05-07T01:10:02;13.85;;;12.30;;
10497;SDS011;5296;51.060;13.750;2023-05-07T01:15:05;13.68;;;12.35;;
10497;SDS011;5296;51.060;13.750;2023-05-07T01:20:08;13.13;;;11.82;;
10497;SDS011;5296;51.060;13.750;2023-05-07T01:25:12;12.82;;;11.63;;
10497;SDS011;5296;51.060;13.750;2023-05-07T01:30:20;13.10;;;11.65;;
10497;SDS011;5296;51.060;13.750;2023-05-07T01:35:24;12.55;;;11.25;;
10497;SDS011;5296;51.060;13.750;2023-05-07T01:40:28;12.40;;;11.27;;
10497;SDS011;5296;51.060;13.750;2023-05-07T01:45:30;12.98;;;11.68;;
10497;SDS011;5296;51.060;13.750;2023-05-07T01:50:33;12.65;;;11.35;;
10497;SDS011;5296;51.060;13.750;2023-05-07T01:55:35;13.65;;;12.15;;
10497;SDS011;5296;51.060;13.750;2023-05-07T02:00:39;12.90;;;11.60;;
10497;SDS011;5296;51.060;13.750;2023-05-07T02:05:41;13.38;;;12.05;;
10497;SDS011;5296;51.060;13.750;2023-05-07T02:11:04;12.75;;;11.32;;
10497;SDS011;5296;51.060;13.750;2023-05-07T02:16:06;13.13;;;11.82;;
10497;SDS011;5296;51.060;13.750;2023-05-07T02:21:08;12.93;;;11.48;;
10497;SDS011;5296;51.060;13.750;2023-05-07T02:26:10;11.93;;;10.70;;
10497;SDS011;5296;51.060;13.750;2023-05-07T02:31:12;12.25;;;10.95;;
10497;SDS011;5296;51.060;13.750;2023-05-07T02:36:14;11.85;;;10.60;;
10497;SDS011;5296;51.060;13.750;2023-05-07T02:41:25;12.35;;;11.00;;
10497;SDS011;5296;51.060;13.750;2023-05-07T02:46:27;11.52;;;10.32;;
10497;SDS011;5296;51.060;13.750;2023-05-07T02:51:36;11.95;;;10.30;;
10497;SDS011;5296;51.060;13.750;2023-05-07T02:56:44;9.80;;;8.80;;
10497;SDS011;5296;51.060;13.750;2023-05-07T03:01:46;9.90;;;8.88;;
10497;SDS011;5296;51.060;13.750;2023-05-07T03:06:48;9.60;;;8.50;;
10497;SDS011;5296;51.060;13.750;2023-05-07T03:11:50;8.48;;;7.68;;
10497;SDS011;5296;51.060;13.750;2023-05-07T03:16:52;8.60;;;7.80;;
10497;SDS011;5296;51.060;13.750;2023-05-07T03:21:54;8.82;;;7.85;;
10497;SDS011;5296;51.060;13.750;2023-05-07T03:26:55;10.57;;;8.48;;
10497;SDS011;5296;51.060;13.750;2023-05-07T03:31:59;10.13;;;9.00;;
10497;SDS011;5296;51.060;13.750;2023-05-07T03:37:01;10.75;;;8.93;;
10497;SDS011;5296;51.060;13.750;2023-05-07T03:42:03;11.43;;;10.20;;
10497;SDS011;5296;51.060;13.750;2023-05-07T03:47:07;10.30;;;9.13;;
10497;SDS011;5296;51.060;13.750;2023-05-07T03:52:09;12.50;;;10.13;;
10497;SDS011;5296;51.060;13.750;2023-05-07T03:57:11;11.90;;;9.07;;
10497;SDS011;5296;51.060;13.750;2023-05-07T04:02:13;11.27;;;9.35;;
10497;SDS011;5296;51.060;13.750;2023-05-07T04:07:15;10.95;;;9.63;;
10497;SDS011;5296;51.060;13.750;2023-05-07T04:12:22;10.57;;;9.43;;
10497;SDS011;5296;51.060;13.750;2023-05-07T04:17:24;12.88;;;10.45;;
10497;SDS011;5296;51.060;13.750;2023-05-07T04:22:26;11.32;;;9.15;;
10497;SDS011;5296;51.060;13.750;2023-05-07T04:27:28;10.00;;;8.65;;
10497;SDS011;5296;51.060;13.750;2023-05-07T04:32:30;10.32;;;9.25;;
10497;SDS011;5296;51.060;13.750;2023-05-07T04:37:33;10.27;;;8.88;;
10497;SDS011;5296;51.060;13.750;2023-05-07T04:42:34;10.40;;;9.07;;
10497;SDS011;5296;51.060;13.750;2023-05-07T04:47:37;12.25;;;10.50;;
10497;SDS011;5296;51.060;13.750;2023-05-07T04:52:39;11.80;;;9.95;;
10497;SDS011;5296;51.060;13.750;2023-05-07T04:57:41;9.90;;;8.90;;
10497;SDS011;5296;51.060;13.750;2023-05-07T05:02:45;11.15;;;9.60;;
10497;SDS011;5296;51.060;13.750;2023-05-07T05:07:51;10.20;;;9.13;;
10497;SDS011;5296;51.060;13.750;2023-05-07T05:12:54;10.35;;;8.73;;
10497;SDS011;5296;51.060;13.750;2023-05-07T05:17:57;9.88;;;8.23;;
10497;SDS011;5296;51.060;13.750;2023-05-07T05:22:59;11.25;;;9.23;;
10497;SDS011;5296;51.060;13.750;2023-05-07T05:28:00;10.25;;;9.05;;
10497;SDS011;5296;51.060;13.750;2023-05-07T05:33:03;10.70;;;9.00;;
10497;SDS011;5296;51.060;13.750;2023-05-07T05:38:05;11.23;;;10.02;;
10497;SDS011;5296;51.060;13.750;2023-05-07T05:43:08;11.40;;;10.00;;
10497;SDS011;5296;51.060;13.750;2023-05-07T05:48:11;12.02;;;10.63;;
10497;SDS011;5296;51.060;13.750;2023-05-07T05:53:14;10.93;;;9.35;;
10497;SDS011;5296;51.060;13.750;2023-05-07T05:58:18;11.80;;;9.48;;
10497;SDS011;5296;51.060;13.750;2023-05-07T06:03:26;9.30;;;7.88;;
10497;SDS011;5296;51.060;13.750;2023-05-07T06:08:29;9.10;;;7.95;;
10497;SDS011;5296;51.060;13.750;2023-05-07T06:13:31;11.10;;;7.30;;
10497;SDS011;5296;51.060;13.750;2023-05-07T06:18:34;7.97;;;7.18;;
10497;SDS011;5296;51.060;13.750;2023-05-07T06:23:37;8.43;;;7.10;;
10497;SDS011;5296;51.060;13.750;2023-05-07T06:28:41;8.65;;;7.20;;
10497;SDS011;5296;51.060;13.750;2023-05-07T06:33:46;8.13;;;7.18;;
10497;SDS011;5296;51.060;13.750;2023-05-07T06:38:49;8.05;;;7.03;;
10497;SDS011;5296;51.060;13.750;2023-05-07T06:43:51;10.93;;;7.97;;
10497;SDS011;5296;51.060;13.750;2023-05-07T06:49:16;8.20;;;7.35;;
10497;SDS011;5296;51.060;13.750;2023-05-07T06:54:19;7.82;;;6.72;;
10497;SDS011;5296;51.060;13.750;2023-05-07T06:59:21;6.55;;;5.95;;
10497;SDS011;5296;51.060;13.750;2023-05-07T07:04:23;8.93;;;7.93;;
10497;SDS011;5296;51.060;13.750;2023-05-07T07:09:33;8.15;;;7.35;;
10497;SDS011;5296;51.060;13.750;2023-05-07T07:14:37;7.60;;;6.90;;
10497;SDS011;5296;51.060;13.750;2023-05-07T07:19:39;6.43;;;5.80;;
10497;SDS011;5296;51.060;13.750;2023-05-07T07:24:40;5.90;;;5.30;;
10497;SDS011;5296;51.060;13.750;2023-05-07T07:29:45;6.18;;;5.07;;
10497;SDS011;5296;51.060;13.750;2023-05-07T07:34:46;5.28;;;4.60;;
10497;SDS011;5296;51.060;13.750;2023-05-07T07:39:48;4.68;;;4.15;;
10497;SDS011;5296;51.060;13.750;2023-05-07T07:44:50;4.50;;;4.10;;
10497;SDS011;5296;51.060;13.750;2023-05-07T07:49:55;4.38;;;3.97;;
10497;SDS011;5296;51.060;13.750;2023-05-07T07:54:57;4.50;;;4.05;;
10497;SDS011;5296;51.060;13.750;2023-05-07T07:59:59;3.90;;;3.58;;
10497;SDS011;5296;51.060;13.750;2023-05-07T08:05:02;4.22;;;3.83;;
10497;SDS011;5296;51.060;13.750;2023-05-07T08:10:04;8.27;;;4.40;;
10497;SDS011;5296;51.060;13.750;2023-05-07T08:15:06;3.80;;;3.50;;
10497;SDS011;5296;51.060;13.750;2023-05-07T08:20:08;3.80;;;3.50;;
10497;SDS011;5296;51.060;13.750;2023-05-07T08:25:12;4.20;;;3.80;;
10497;SDS011;5296;51.060;13.750;2023-05-07T08:30:13;4.38;;;3.97;;
10497;SDS011;5296;51.060;13.750;2023-05-07T08:35:15;4.00;;;3.70;;
10497;SDS011;5296;51.060;13.750;2023-05-07T08:40:17;4.63;;;4.22;;
10497;SDS011;5296;51.060;13.750;2023-05-07T08:45:20;4.10;;;3.80;;
10497;SDS011;5296;51.060;13.750;2023-05-07T08:50:26;4.30;;;3.90;;
10497;SDS011;5296;51.060;13.750;2023-05-07T08:55:28;4.65;;;4.25;;
10497;SDS011;5296;51.060;13.750;2023-05-07T09:00:30;5.38;;;4.88;;
10497;SDS011;5296;51.060;13.750;2023-05-07T09:05:33;5.82;;;5.22;;
10497;SDS011;5296;51.060;13.750;2023-05-07T09:10:35;6.30;;;5.70;;
10497;SDS011;5296;51.060;13.750;2023-05-07T09:15:39;7.05;;;6.35;;
10497;SDS011;5296;51.060;13.750;2023-05-07T09:20:41;7.07;;;5.95;;
10497;SDS011;5296;51.060;13.750;2023-05-07T09:25:43;7.65;;;6.10;;
10497;SDS011;5296;51.060;13.750;2023-05-07T09:30:52;7.63;;;6.28;;
10497;SDS011;5296;51.060;13.750;2023-05-07T09:35:54;6.80;;;6.07;;
10497;SDS011;5296;51.060;13.750;2023-05-07T09:46:13;6.70;;;6.05;;
10497;SDS011;5296;51.060;13.750;2023-05-07T09:51:33;5.90;;;5.40;;
10497;SDS011;5296;51.060;13.750;2023-05-07T09:56:42;6.20;;;5.68;;
10497;SDS011;5296;51.060;13.750;2023-05-07T10:01:45;7.20;;;6.57;;
10497;SDS011;5296;51.060;13.750;2023-05-07T10:06:48;7.57;;;6.55;;
10497;SDS011;5296;51.060;13.750;2023-05-07T10:11:50;7.10;;;6.40;;
10497;SDS011;5296;51.060;13.750;2023-05-07T10:16:54;6.22;;;5.63;;
10497;SDS011;5296;51.060;13.750;2023-05-07T10:22:00;8.60;;;6.57;;
10497;SDS011;5296;51.060;13.750;2023-05-07T10:27:10;6.93;;;6.32;;
10497;SDS011;5296;51.060;13.750;2023-05-07T10:37:38;6.38;;;5.88;;
10497;SDS011;5296;51.060;13.750;2023-05-07T10:42:52;7.28;;;6.53;;
10497;SDS011;5296;51.060;13.750;2023-05-07T10:48:16;6.68;;;6.07;;
10497;SDS011;5296;51.060;13.750;2023-05-07T10:53:27;6.53;;;6.00;;
10497;SDS011;5296;51.060;13.750;2023-05-07T10:58:39;6.10;;;5.50;;
10497;SDS011;5296;51.060;13.750;2023-05-07T11:04:13;5.57;;;5.10;;
10497;SDS011;5296;51.060;13.750;2023-05-07T11:09:25;5.13;;;4.72;;
10497;SDS011;5296;51.060;13.750;2023-05-07T11:14:57;5.65;;;5.18;;
10497;SDS011;5296;51.060;13.750;2023-05-07T11:20:06;5.97;;;5.20;;
10497;SDS011;5296;51.060;13.750;2023-05-07T11:25:29;5.80;;;5.20;;
10497;SDS011;5296;51.060;13.750;2023-05-07T11:30:38;5.65;;;5.22;;
10497;SDS011;5296;51.060;13.750;2023-05-07T11:35:44;5.80;;;5.30;;
10497;SDS011;5296;51.060;13.750;2023-05-07T11:40:52;5.60;;;5.10;;
10497;SDS011;5296;51.060;13.750;2023-05-07T11:45:54;6.10;;;5.18;;
10497;SDS011;5296;51.060;13.750;2023-05-07T11:51:00;6.00;;;5.47;;
10497;SDS011;5296;51.060;13.750;2023-05-07T11:56:06;5.55;;;5.13;;
10497;SDS011;5296;51.060;13.750;2023-05-07T12:01:12;5.43;;;5.03;;
10497;SDS011;5296;51.060;13.750;2023-05-07T12:06:15;6.25;;;5.75;;
10497;SDS011;5296;51.060;13.750;2023-05-07T12:11:23;5.45;;;4.95;;
10497;SDS011;5296;51.060;13.750;2023-05-07T12:16:26;5.97;;;5.47;;
10497;SDS011;5296;51.060;13.750;2023-05-07T12:21:29;5.53;;;5.03;;
10497;SDS011;5296;51.060;13.750;2023-05-07T12:26:30;6.28;;;5.45;;
10497;SDS011;5296;51.060;13.750;2023-05-07T12:31:32;5.57;;;5.15;;
10497;SDS011;5296;51.060;13.750;2023-05-07T12:36:37;5.47;;;5.07;;
10497;SDS011;5296;51.060;13.750;2023-05-07T12:41:55;5.57;;;5.07;;
10497;SDS011;5296;51.060;13.750;2023-05-07T12:47:02;4.88;;;4.47;;
10497;SDS011;5296;51.060;13.750;2023-05-07T12:52:04;5.32;;;4.82;;
10497;SDS011;5296;51.060;13.750;2023-05-07T12:57:07;4.80;;;4.35;;
10497;SDS011;5296;51.060;13.750;2023-05-07T13:02:09;5.53;;;5.13;;
10497;SDS011;5296;51.060;13.750;2023-05-07T13:07:13;5.53;;;5.03;;
10497;SDS011;5296;51.060;13.750;2023-05-07T13:12:15;5.13;;;4.32;;
10497;SDS011;5296;51.060;13.750;2023-05-07T13:17:17;4.72;;;4.35;;
10497;SDS011;5296;51.060;13.750;2023-05-07T13:22:20;5.13;;;4.72;;
10497;SDS011;5296;51.060;13.750;2023-05-07T13:27:21;4.75;;;4.30;;
10497;SDS011;5296;51.060;13.750;2023-05-07T13:32:23;5.22;;;4.82;;
10497;SDS011;5296;51.060;13.750;2023-05-07T13:37:24;4.38;;;3.97;;
10497;SDS011;5296;51.060;13.750;2023-05-07T13:42:26;4.28;;;3.90;;
10497;SDS011;5296;51.060;13.750;2023-05-07T13:47:28;4.10;;;3.72;;
10497;SDS011;5296;51.060;13.750;2023-05-07T13:52:29;4.05;;;3.75;;
10497;SDS011;5296;51.060;13.750;2023-05-07T13:57:31;4.82;;;4.40;;
10497;SDS011;5296;51.060;13.750;2023-05-07T14:02:33;5.15;;;4.75;;
10497;SDS011;5296;51.060;13.750;2023-05-07T14:07:34;4.60;;;4.20;;
10497;SDS011;5296;51.060;13.750;2023-05-07T14:12:37;4.05;;;3.42;;
10497;SDS011;5296;51.060;13.750;2023-05-07T14:17:38;4.47;;;3.05;;
10497;SDS011;5296;51.060;13.750;2023-05-07T14:22:40;3.92;;;3.58;;
10497;SDS011;5296;51.060;13.750;2023-05-07T14:27:42;3.35;;;3.05;;
10497;SDS011;5296;51.060;13.750;2023-05-07T14:32:43;3.80;;;3.50;;
10497;SDS011;5296;51.060;13.750;2023-05-07T14:37:45;3.80;;;3.45;;
10497;SDS011;5296;51.060;13.750;2023-05-07T14:42:47;3.00;;;2.78;;
10497;SDS011;5296;51.060;13.750;2023-05-07T14:47:48;3.22;;;2.92;;
10497;SDS011;5296;51.060;13.750;2023-05-07T14:52:50;3.60;;;3.30;;
10497;SDS011;5296;51.060;13.750;2023-05-07T14:57:52;3.97;;;3.33;;
10497;SDS011;5296;51.060;13.750;2023-05-07T15:02:54;3.92;;;3.60;;
10497;SDS011;5296;51.060;13.750;2023-05-07T15:07:58;3.40;;;3.20;;
10497;SDS011;5296;51.060;13.750;2023-05-07T15:13:00;3.50;;;3.20;;
10497;SDS011;5296;51.060;13.750;2023-05-07T15:18:02;3.85;;;3.55;;
10497;SDS011;5296;51.060;13.750;2023-05-07T15:23:04;4.50;;;4.10;;
10497;SDS011;5296;51.060;13.750;2023-05-07T15:28:07;6.00;;;4.05;;
10497;SDS011;5296;51.060;13.750;2023-05-07T15:33:09;5.28;;;4.82;;
10497;SDS011;5296;51.060;13.750;2023-05-07T15:38:10;4.80;;;4.32;;
10497;SDS011;5296;51.060;13.750;2023-05-07T15:43:14;5.40;;;4.90;;
10497;SDS011;5296;51.060;13.750;2023-05-07T15:48:15;4.82;;;4.32;;
10497;SDS011;5296;51.060;13.750;2023-05-07T15:53:17;4.90;;;4.50;;
10497;SDS011;5296;51.060;13.750;2023-05-07T15:58:19;6.88;;;4.40;;
10497;SDS011;5296;51.060;13.750;2023-05-07T16:03:21;4.80;;;4.40;;
10497;SDS011;5296;51.060;13.750;2023-05-07T16:08:23;5.38;;;4.50;;
10497;SDS011;5296;51.060;13.750;2023-05-07T16:13:25;5.07;;;4.68;;
10497;SDS011;5296;51.060;13.750;2023-05-07T16:18:27;4.72;;;4.20;;
10497;SDS011;5296;51.060;13.750;2023-05-07T16:23:28;5.45;;;4.85;;
10497;SDS011;5296;51.060;13.750;2023-05-07T16:28:31;5.47;;;4.97;;
10497;SDS011;5296;51.060;13.750;2023-05-07T16:33:33;4.75;;;4.35;;
10497;SDS011;5296;51.060;13.750;2023-05-07T16:38:35;8.30;;;5.55;;
10497;SDS011;5296;51.060;13.750;2023-05-07T16:43:37;5.00;;;4.60;;
10497;SDS011;5296;51.060;13.750;2023-05-07T16:48:39;4.78;;;4.38;;
10497;SDS011;5296;51.060;13.750;2023-05-07T16:53:40;5.25;;;4.57;;
10497;SDS011;5296;51.060;13.750;2023-05-07T16:58:42;4.78;;;4.38;;
10497;SDS011;5296;51.060;13.750;2023-05-07T17:03:44;4.78;;;4.38;;
10497;SDS011;5296;51.060;13.750;2023-05-07T17:08:46;5.75;;;4.43;;
10497;SDS011;5296;51.060;13.750;2023-05-07T17:13:47;5.32;;;4.18;;
10497;SDS011;5296;51.060;13.750;2023-05-07T17:18:49;5.03;;;4.50;;
10497;SDS011;5296;51.060;13.750;2023-05-07T17:23:51;5.00;;;4.60;;
10497;SDS011;5296;51.060;13.750;2023-05-07T17:28:53;5.05;;;4.65;;
10497;SDS011;5296;51.060;13.750;2023-05-07T17:33:54;5.05;;;4.55;;
10497;SDS011;5296;51.060;13.750;2023-05-07T17:38:56;4.60;;;4.20;;
10497;SDS011;5296;51.060;13.750;2023-05-07T17:43:57;4.82;;;4.40;;
10497;SDS011;5296;51.060;13.750;2023-05-07T17:48:59;7.00;;;4.47;;
10497;SDS011;5296;51.060;13.750;2023-05-07T17:54:01;4.80;;;4.40;;
10497;SDS011;5296;51.060;13.750;2023-05-07T17:59:02;4.47;;;4.05;;
10497;SDS011;5296;51.060;13.750;2023-05-07T18:04:04;4.45;;;4.05;;
10497;SDS011;5296;51.060;13.750;2023-05-07T18:09:06;4.25;;;3.95;;
10497;SDS011;5296;51.060;13.750;2023-05-07T18:14:08;4.70;;;4.30;;
10497;SDS011;5296;51.060;13.750;2023-05-07T18:19:10;4.18;;;3.78;;
10497;SDS011;5296;51.060;13.750;2023-05-07T18:24:12;4.65;;;4.25;;
10497;SDS011;5296;51.060;13.750;2023-05-07T18:29:14;5.05;;;4.55;;
10497;SDS011;5296;51.060;13.750;2023-05-07T18:34:15;6.15;;;4.90;;
10497;SDS011;5296;51.060;13.750;2023-05-07T18:39:17;5.20;;;4.80;;
10497;SDS011;5296;51.060;13.750;2023-05-07T18:44:19;4.93;;;4.53;;
10497;SDS011;5296;51.060;13.750;2023-05-07T18:49:21;4.97;;;4.57;;
10497;SDS011;5296;51.060;13.750;2023-05-07T18:54:22;5.47;;;4.97;;
10497;SDS011;5296;51.060;13.750;2023-05-07T18:59:24;5.18;;;4.78;;
10497;SDS011;5296;51.060;13.750;2023-05-07T19:04:26;5.60;;;5.15;;
10497;SDS011;5296;51.060;13.750;2023-05-07T19:09:27;5.65;;;5.15;;
10497;SDS011;5296;51.060;13.750;2023-05-07T19:14:29;5.40;;;5.00;;
10497;SDS011;5296;51.060;13.750;2023-05-07T19:19:30;5.95;;;5.45;;
10497;SDS011;5296;51.060;13.750;2023-05-07T19:24:32;5.40;;;4.90;;
10497;SDS011;5296;51.060;13.750;2023-05-07T19:29:34;5.68;;;5.18;;
10497;SDS011;5296;51.060;13.750;2023-05-07T19:34:36;5.70;;;5.20;;
10497;SDS011;5296;51.060;13.750;2023-05-07T19:39:37;5.70;;;5.22;;
10497;SDS011;5296;51.060;13.750;2023-05-07T19:44:39;5.47;;;4.82;;
10497;SDS011;5296;51.060;13.750;2023-05-07T19:49:41;6.20;;;5.70;;
10497;SDS011;5296;51.060;13.750;2023-05-07T19:54:43;6.00;;;5.47;;
10497;SDS011;5296;51.060;13.750;2023-05-07T19:59:45;6.15;;;5.35;;
10497;SDS011;5296;51.060;13.750;2023-05-07T20:04:47;6.07;;;5.57;;
10497;SDS011;5296;51.060;13.750;2023-05-07T20:09:48;5.85;;;5.10;;
10497;SDS011;5296;51.060;13.750;2023-05-07T20:14:50;5.43;;;5.00;;
10497;SDS011;5296;51.060;13.750;2023-05-07T20:19:53;5.50;;;5.00;;
10497;SDS011;5296;51.060;13.750;2023-05-07T20:24:54;6.40;;;4.55;;
10497;SDS011;5296;51.060;13.750;2023-05-07T20:29:56;5.07;;;4.57;;
10497;SDS011;5296;51.060;13.750;2023-05-07T20:34:58;4.78;;;4.38;;
10497;SDS011;5296;51.060;13.750;2023-05-07T20:39:59;4.95;;;4.53;;
10497;SDS011;5296;51.060;13.750;2023-05-07T20:45:01;5.05;;;3.70;;
10497;SDS011;5296;51.060;13.750;2023-05-07T20:50:04;5.53;;;4.18;;
10497;SDS011;5296;51.060;13.750;2023-05-07T20:55:06;4.45;;;4.05;;
10497;SDS011;5296;51.060;13.750;2023-05-07T21:00:09;4.60;;;4.20;;
10497;SDS011;5296;51.060;13.750;2023-05-07T21:05:11;4.25;;;3.85;;
10497;SDS011;5296;51.060;13.750;2023-05-07T21:10:13;4.38;;;4.07;;
10497;SDS011;5296;51.060;13.750;2023-05-07T21:15:14;4.30;;;4.00;;
10497;SDS011;5296;51.060;13.750;2023-05-07T21:20:16;5.18;;;3.83;;
10497;SDS011;5296;51.060;13.750;2023-05-07T21:25:18;4.15;;;3.85;;
10497;SDS011;5296;51.060;13.750;2023-05-07T21:30:19;5.30;;;4.10;;
10497;SDS011;5296;51.060;13.750;2023-05-07T21:35:21;5.03;;;4.22;;
10497;SDS011;5296;51.060;13.750;2023-05-07T21:40:23;4.07;;;3.78;;
10497;SDS011;5296;51.060;13.750;2023-05-07T21:45:25;4.75;;;4.10;;
10497;SDS011;5296;51.060;13.750;2023-05-07T21:50:26;4.90;;;4.43;;
10497;SDS011;5296;51.060;13.750;2023-05-07T21:55:28;4.47;;;4.07;;
10497;SDS011;5296;51.060;13.750;2023-05-07T22:00:30;4.07;;;3.67;;
10497;SDS011;5296;51.060;13.750;2023-05-07T22:05:32;5.05;;;4.57;;
10497;SDS011;5296;51.060;13.750;2023-05-07T22:10:34;4.53;;;4.13;;
10497;SDS011;5296;51.060;13.750;2023-05-07T22:15:36;4.75;;;4.20;;
10497;SDS011;5296;51.060;13.750;2023-05-07T22:20:56;5.20;;;4.45;;
10497;SDS011;5296;51.060;13.750;2023-05-07T22:25:58;4.45;;;3.72;;
10497;SDS011;5296;51.060;13.750;2023-05-07T22:30:59;4.90;;;4.45;;
10497;SDS011;5296;51.060;13.750;2023-05-07T22:36:01;4.07;;;3.78;;
10497;SDS011;5296;51.060;13.750;2023-05-07T22:41:03;4.90;;;4.40;;
10497;SDS011;5296;51.060;13.750;2023-05-07T22:46:05;4.50;;;4.10;;
10497;SDS011;5296;51.060;13.750;2023-05-07T22:51:11;5.50;;;4.97;;
10497;SDS011;5296;51.060;13.750;2023-05-07T22:56:16;4.63;;;4.22;;
10497;SDS011;5296;51.060;13.750;2023-05-07T23:01:18;4.85;;;4.20;;
10497;SDS011;5296;51.060;13.750;2023-05-07T23:06:20;4.82;;;4.32;;
10497;SDS011;5296;51.060;13.750;2023-05-07T23:11:21;4.55;;;4.15;;
10497;SDS011;5296;51.060;13.750;2023-05-07T23:16:23;4.35;;;3.97;;
10497;SDS011;5296;51.060;13.750;2023-05-07T23:21:25;5.85;;;4.80;;
10497;SDS011;5296;51.060;13.750;2023-05-07T23:26:27;6.43;;;4.35;;
10497;SDS011;5296;51.060;13.750;2023-05-07T23:31:28;4.82;;;4.43;;
10497;SDS011;5296;51.060;13.750;2023-05-07T23:36:31;5.32;;;4.82;;
10497;SDS011;5296;51.060;13.750;2023-05-07T23:41:32;5.32;;;4.90;;
10497;SDS011;5296;51.060;13.750;2023-05-07T23:46:34;5.20;;;4.70;;
10497;SDS011;5296;51.060;13.750;2023-05-07T23:51:36;6.88;;;4.57;;
10497;SDS011;5296;51.060;13.750;2023-05-07T23:56:38;4.55;;;4.15;;
